sensor_id;sensor_type;location;lat;lon;timestamp;pressure;altitude;pressure_sealevel;temperature;humidity
61618;BME280;47518;51.776;9.370;2023-04-19T00:00:55;101356.97;;;10.70;62.14
61618;BME280;47518;51.776;9.370;2023-04-19T00:03:21;101355.66;;;10.74;62.44
61618;BME280;47518;51.776;9.370;2023-04-19T00:05:57;101348.81;;;10.70;61.90
61618;BME280;47518;51.776;9.370;2023-04-19T00:08:24;101347.44;;;10.66;61.67
61618;BME280;47518;51.776;9.370;2023-04-19T00:10:50;101345.34;;;10.77;61.84
61618;BME280;47518;51.776;9.370;2023-04-19T00:13:15;101352.72;;;10.85;61.23
61618;BME280;47518;51.776;9.370;2023-04-19T00:15:41;101347.59;;;10.82;60.98
61618;BME280;47518;51.776;9.370;2023-04-19T00:18:06;101350.31;;;10.82;60.76
61618;BME280;47518;51.776;9.370;2023-04-19T00:20:32;101344.06;;;10.72;61.39
61618;BME280;47518;51.776;9.370;2023-04-19T00:22:57;101348.50;;;10.73;61.39
61618;BME280;47518;51.776;9.370;2023-04-19T00:25:24;101347.69;;;10.63;61.22
61618;BME280;47518;51.776;9.370;2023-04-19T00:27:49;101345.28;;;10.60;59.57
61618;BME280;47518;51.776;9.370;2023-04-19T00:30:15;101346.16;;;10.60;59.08
61618;BME280;47518;51.776;9.370;2023-04-19T00:32:40;101348.31;;;10.57;58.63
61618;BME280;47518;51.776;9.370;2023-04-19T00:35:05;101349.03;;;10.59;58.90
61618;BME280;47518;51.776;9.370;2023-04-19T00:37:31;101346.03;;;10.52;59.07
61618;BME280;47518;51.776;9.370;2023-04-19T00:39:56;101348.63;;;10.54;58.97
61618;BME280;47518;51.776;9.370;2023-04-19T00:42:21;101355.22;;;10.51;59.09
61618;BME280;47518;51.776;9.370;2023-04-19T00:44:47;101357.53;;;10.46;58.16
61618;BME280;47518;51.776;9.370;2023-04-19T00:47:13;101350.44;;;10.35;58.72
61618;BME280;47518;51.776;9.370;2023-04-19T00:49:41;101358.13;;;10.40;58.43
61618;BME280;47518;51.776;9.370;2023-04-19T00:52:07;101344.50;;;10.49;57.93
61618;BME280;47518;51.776;9.370;2023-04-19T00:54:32;101343.94;;;10.46;57.86
61618;BME280;47518;51.776;9.370;2023-04-19T00:56:58;101333.63;;;10.49;58.89
61618;BME280;47518;51.776;9.370;2023-04-19T00:59:24;101337.50;;;10.47;58.33
61618;BME280;47518;51.776;9.370;2023-04-19T01:01:50;101344.91;;;10.55;59.26
61618;BME280;47518;51.776;9.370;2023-04-19T01:04:16;101343.78;;;10.47;58.16
61618;BME280;47518;51.776;9.370;2023-04-19T01:06:41;101341.78;;;10.49;58.78
61618;BME280;47518;51.776;9.370;2023-04-19T01:09:07;101356.56;;;10.37;59.31
61618;BME280;47518;51.776;9.370;2023-04-19T01:11:33;101358.84;;;10.42;58.99
61618;BME280;47518;51.776;9.370;2023-04-19T01:13:58;101349.53;;;10.44;58.65
61618;BME280;47518;51.776;9.370;2023-04-19T01:16:28;101342.25;;;10.45;58.55
61618;BME280;47518;51.776;9.370;2023-04-19T01:18:53;101338.94;;;10.41;57.51
61618;BME280;47518;51.776;9.370;2023-04-19T01:21:19;101340.44;;;10.26;58.52
61618;BME280;47518;51.776;9.370;2023-04-19T01:23:47;101346.59;;;10.28;57.93
61618;BME280;47518;51.776;9.370;2023-04-19T01:26:12;101348.56;;;10.36;59.00
61618;BME280;47518;51.776;9.370;2023-04-19T01:28:38;101350.31;;;10.27;57.91
61618;BME280;47518;51.776;9.370;2023-04-19T01:31:03;101349.03;;;10.31;58.42
61618;BME280;47518;51.776;9.370;2023-04-19T01:33:28;101344.19;;;10.25;58.69
61618;BME280;47518;51.776;9.370;2023-04-19T01:35:57;101339.75;;;10.14;57.96
61618;BME280;47518;51.776;9.370;2023-04-19T01:38:26;101336.88;;;10.16;58.72
61618;BME280;47518;51.776;9.370;2023-04-19T01:40:51;101333.78;;;10.11;58.63
61618;BME280;47518;51.776;9.370;2023-04-19T01:43:17;101332.34;;;10.07;58.34
61618;BME280;47518;51.776;9.370;2023-04-19T01:45:46;101332.75;;;10.12;58.40
61618;BME280;47518;51.776;9.370;2023-04-19T01:48:11;101330.63;;;10.06;59.20
61618;BME280;47518;51.776;9.370;2023-04-19T01:50:36;101325.09;;;9.98;58.50
61618;BME280;47518;51.776;9.370;2023-04-19T01:53:02;101329.06;;;10.03;58.09
61618;BME280;47518;51.776;9.370;2023-04-19T01:55:27;101329.50;;;10.08;57.94
61618;BME280;47518;51.776;9.370;2023-04-19T01:57:53;101328.50;;;10.09;58.26
61618;BME280;47518;51.776;9.370;2023-04-19T02:00:19;101326.63;;;10.10;57.93
61618;BME280;47518;51.776;9.370;2023-04-19T02:02:44;101324.72;;;10.20;58.20
61618;BME280;47518;51.776;9.370;2023-04-19T02:05:10;101322.28;;;10.27;57.21
61618;BME280;47518;51.776;9.370;2023-04-19T02:07:36;101319.72;;;10.15;57.08
61618;BME280;47518;51.776;9.370;2023-04-19T02:10:02;101325.50;;;10.03;57.37
61618;BME280;47518;51.776;9.370;2023-04-19T02:12:28;101319.91;;;10.04;58.43
61618;BME280;47518;51.776;9.370;2023-04-19T02:15:03;101326.78;;;10.08;57.24
61618;BME280;47518;51.776;9.370;2023-04-19T02:17:31;101321.47;;;10.07;57.12
61618;BME280;47518;51.776;9.370;2023-04-19T02:19:56;101323.47;;;10.05;56.41
61618;BME280;47518;51.776;9.370;2023-04-19T02:22:22;101319.38;;;9.91;56.38
61618;BME280;47518;51.776;9.370;2023-04-19T02:24:49;101317.44;;;9.74;55.98
61618;BME280;47518;51.776;9.370;2023-04-19T02:27:15;101324.00;;;9.71;55.83
61618;BME280;47518;51.776;9.370;2023-04-19T02:29:40;101314.09;;;9.89;56.67
61618;BME280;47518;51.776;9.370;2023-04-19T02:32:06;101316.72;;;9.72;55.78
61618;BME280;47518;51.776;9.370;2023-04-19T02:34:32;101321.91;;;9.55;53.51
61618;BME280;47518;51.776;9.370;2023-04-19T02:36:57;101323.06;;;9.43;53.99
61618;BME280;47518;51.776;9.370;2023-04-19T02:39:23;101334.34;;;9.48;52.31
61618;BME280;47518;51.776;9.370;2023-04-19T02:41:51;101328.09;;;9.38;52.54
61618;BME280;47518;51.776;9.370;2023-04-19T02:44:16;101340.91;;;9.36;51.20
61618;BME280;47518;51.776;9.370;2023-04-19T02:46:48;101339.78;;;9.19;49.75
61618;BME280;47518;51.776;9.370;2023-04-19T02:49:14;101351.50;;;9.10;49.38
61618;BME280;47518;51.776;9.370;2023-04-19T02:51:39;101342.63;;;9.08;50.49
61618;BME280;47518;51.776;9.370;2023-04-19T02:54:04;101344.22;;;9.11;49.78
61618;BME280;47518;51.776;9.370;2023-04-19T02:56:30;101344.94;;;9.03;50.75
61618;BME280;47518;51.776;9.370;2023-04-19T02:58:55;101344.31;;;8.90;49.93
61618;BME280;47518;51.776;9.370;2023-04-19T03:01:21;101346.75;;;9.02;52.20
61618;BME280;47518;51.776;9.370;2023-04-19T03:03:46;101353.66;;;9.16;50.74
61618;BME280;47518;51.776;9.370;2023-04-19T03:06:14;101346.75;;;9.02;50.78
61618;BME280;47518;51.776;9.370;2023-04-19T03:08:43;101353.34;;;9.10;51.25
61618;BME280;47518;51.776;9.370;2023-04-19T03:11:10;101350.75;;;8.98;51.17
61618;BME280;47518;51.776;9.370;2023-04-19T03:13:35;101355.78;;;9.03;50.74
61618;BME280;47518;51.776;9.370;2023-04-19T03:16:01;101351.09;;;9.15;49.81
61618;BME280;47518;51.776;9.370;2023-04-19T03:18:26;101350.06;;;9.06;50.38
61618;BME280;47518;51.776;9.370;2023-04-19T03:20:51;101353.19;;;9.11;50.67
61618;BME280;47518;51.776;9.370;2023-04-19T03:23:17;101358.50;;;9.22;50.16
61618;BME280;47518;51.776;9.370;2023-04-19T03:25:45;101346.75;;;9.02;51.43
61618;BME280;47518;51.776;9.370;2023-04-19T03:28:10;101344.13;;;8.62;51.50
61618;BME280;47518;51.776;9.370;2023-04-19T03:30:36;101341.53;;;8.51;51.43
61618;BME280;47518;51.776;9.370;2023-04-19T03:33:01;101341.06;;;8.36;51.93
61618;BME280;47518;51.776;9.370;2023-04-19T03:35:26;101345.22;;;8.40;51.94
61618;BME280;47518;51.776;9.370;2023-04-19T03:37:53;101337.38;;;8.16;52.80
61618;BME280;47518;51.776;9.370;2023-04-19T03:40:19;101340.09;;;8.16;53.42
61618;BME280;47518;51.776;9.370;2023-04-19T03:42:44;101334.34;;;8.10;52.53
61618;BME280;47518;51.776;9.370;2023-04-19T03:45:10;101340.34;;;8.04;52.79
61618;BME280;47518;51.776;9.370;2023-04-19T03:47:35;101337.72;;;7.93;52.02
61618;BME280;47518;51.776;9.370;2023-04-19T03:50:03;101332.94;;;7.85;52.52
61618;BME280;47518;51.776;9.370;2023-04-19T03:52:31;101333.66;;;7.87;52.08
61618;BME280;47518;51.776;9.370;2023-04-19T03:54:56;101337.66;;;7.83;51.77
61618;BME280;47518;51.776;9.370;2023-04-19T03:57:22;101335.00;;;7.72;51.48
61618;BME280;47518;51.776;9.370;2023-04-19T03:59:47;101327.66;;;7.53;50.76
61618;BME280;47518;51.776;9.370;2023-04-19T04:02:12;101326.19;;;7.49;51.27
61618;BME280;47518;51.776;9.370;2023-04-19T04:04:38;101329.03;;;7.47;51.42
61618;BME280;47518;51.776;9.370;2023-04-19T04:07:03;101323.63;;;7.47;50.94
61618;BME280;47518;51.776;9.370;2023-04-19T04:09:29;101326.72;;;7.43;52.13
61618;BME280;47518;51.776;9.370;2023-04-19T04:11:55;101341.28;;;7.51;51.68
61618;BME280;47518;51.776;9.370;2023-04-19T04:14:20;101337.13;;;7.47;50.84
61618;BME280;47518;51.776;9.370;2023-04-19T04:16:46;101336.41;;;7.45;51.94
61618;BME280;47518;51.776;9.370;2023-04-19T04:19:11;101344.34;;;7.58;52.18
61618;BME280;47518;51.776;9.370;2023-04-19T04:21:36;101346.53;;;7.64;51.49
61618;BME280;47518;51.776;9.370;2023-04-19T04:24:02;101349.09;;;7.66;52.29
61618;BME280;47518;51.776;9.370;2023-04-19T04:26:27;101349.81;;;7.68;52.75
61618;BME280;47518;51.776;9.370;2023-04-19T04:28:58;101345.72;;;7.31;55.11
61618;BME280;47518;51.776;9.370;2023-04-19T04:31:23;101345.44;;;7.35;54.24
61618;BME280;47518;51.776;9.370;2023-04-19T04:33:48;101354.22;;;7.27;53.68
61618;BME280;47518;51.776;9.370;2023-04-19T04:36:14;101351.09;;;7.11;53.88
61618;BME280;47518;51.776;9.370;2023-04-19T04:38:39;101356.00;;;7.38;53.24
61618;BME280;47518;51.776;9.370;2023-04-19T04:41:05;101355.00;;;7.18;52.76
61618;BME280;47518;51.776;9.370;2023-04-19T04:43:30;101351.22;;;7.09;53.41
61618;BME280;47518;51.776;9.370;2023-04-19T04:45:59;101346.53;;;7.11;52.76
61618;BME280;47518;51.776;9.370;2023-04-19T04:48:25;101352.44;;;7.05;52.68
61618;BME280;47518;51.776;9.370;2023-04-19T04:50:50;101345.41;;;7.14;53.78
61618;BME280;47518;51.776;9.370;2023-04-19T04:53:15;101357.75;;;7.07;53.94
61618;BME280;47518;51.776;9.370;2023-04-19T04:55:41;101351.41;;;6.96;54.88
61618;BME280;47518;51.776;9.370;2023-04-19T04:58:06;101353.44;;;6.72;54.06
61618;BME280;47518;51.776;9.370;2023-04-19T05:00:32;101348.47;;;6.88;55.17
61618;BME280;47518;51.776;9.370;2023-04-19T05:02:58;101349.44;;;6.87;53.87
61618;BME280;47518;51.776;9.370;2023-04-19T05:05:23;101358.06;;;6.81;54.56
61618;BME280;47518;51.776;9.370;2023-04-19T05:07:49;101362.13;;;6.76;54.08
61618;BME280;47518;51.776;9.370;2023-04-19T05:10:14;101362.59;;;6.81;54.54
61618;BME280;47518;51.776;9.370;2023-04-19T05:12:41;101363.47;;;6.81;54.38
61618;BME280;47518;51.776;9.370;2023-04-19T05:15:07;101358.56;;;6.86;54.02
61618;BME280;47518;51.776;9.370;2023-04-19T05:17:32;101366.28;;;6.80;54.73
61618;BME280;47518;51.776;9.370;2023-04-19T05:20:01;101364.09;;;6.85;53.98
61618;BME280;47518;51.776;9.370;2023-04-19T05:22:26;101367.16;;;6.80;55.01
61618;BME280;47518;51.776;9.370;2023-04-19T05:24:51;101373.78;;;6.87;54.26
61618;BME280;47518;51.776;9.370;2023-04-19T05:27:20;101365.66;;;6.87;53.95
61618;BME280;47518;51.776;9.370;2023-04-19T05:29:45;101362.59;;;6.81;55.19
61618;BME280;47518;51.776;9.370;2023-04-19T05:32:11;101364.41;;;6.91;53.82
61618;BME280;47518;51.776;9.370;2023-04-19T05:34:37;101370.06;;;6.99;54.67
61618;BME280;47518;51.776;9.370;2023-04-19T05:37:04;101369.47;;;6.96;54.58
61618;BME280;47518;51.776;9.370;2023-04-19T05:39:29;101360.22;;;6.98;53.72
61618;BME280;47518;51.776;9.370;2023-04-19T05:41:55;101361.22;;;6.97;54.51
61618;BME280;47518;51.776;9.370;2023-04-19T05:44:23;101358.06;;;6.81;54.78
61618;BME280;47518;51.776;9.370;2023-04-19T05:46:51;101352.25;;;6.97;54.30
61618;BME280;47518;51.776;9.370;2023-04-19T05:49:17;101354.16;;;7.06;54.87
61618;BME280;47518;51.776;9.370;2023-04-19T05:51:42;101354.28;;;7.05;54.09
61618;BME280;47518;51.776;9.370;2023-04-19T05:54:08;101353.66;;;7.12;53.79
61618;BME280;47518;51.776;9.370;2023-04-19T05:56:37;101357.72;;;7.18;54.12
61618;BME280;47518;51.776;9.370;2023-04-19T05:59:02;101355.25;;;7.15;54.40
61618;BME280;47518;51.776;9.370;2023-04-19T06:01:28;101357.31;;;7.22;54.51
61618;BME280;47518;51.776;9.370;2023-04-19T06:03:53;101361.19;;;7.09;54.66
61618;BME280;47518;51.776;9.370;2023-04-19T06:06:20;101368.59;;;7.27;55.04
61618;BME280;47518;51.776;9.370;2023-04-19T06:08:46;101362.91;;;7.10;54.33
61618;BME280;47518;51.776;9.370;2023-04-19T06:35:38;101369.78;;;7.35;55.77
61618;BME280;47518;51.776;9.370;2023-04-19T06:38:04;101373.81;;;7.40;55.16
61618;BME280;47518;51.776;9.370;2023-04-19T06:40:30;101375.28;;;7.44;55.01
61618;BME280;47518;51.776;9.370;2023-04-19T06:42:55;101376.34;;;7.53;54.85
61618;BME280;47518;51.776;9.370;2023-04-19T06:45:21;101375.16;;;7.67;53.99
61618;BME280;47518;51.776;9.370;2023-04-19T06:47:47;101374.50;;;7.74;54.67
61618;BME280;47518;51.776;9.370;2023-04-19T06:50:12;101372.78;;;7.94;54.84
61618;BME280;47518;51.776;9.370;2023-04-19T06:52:38;101369.41;;;8.02;53.17
61618;BME280;47518;51.776;9.370;2023-04-19T06:55:05;101373.81;;;8.03;53.25
61618;BME280;47518;51.776;9.370;2023-04-19T06:57:46;101371.66;;;8.27;52.44
61618;BME280;47518;51.776;9.370;2023-04-19T07:00:16;101365.41;;;8.67;52.08
61618;BME280;47518;51.776;9.370;2023-04-19T07:02:42;101366.47;;;8.95;51.14
61618;BME280;47518;51.776;9.370;2023-04-19T07:05:08;101366.75;;;8.82;51.57
61618;BME280;47518;51.776;9.370;2023-04-19T07:07:37;101351.72;;;8.68;50.96
61618;BME280;47518;51.776;9.370;2023-04-19T07:10:06;101357.03;;;8.89;51.81
61618;BME280;47518;51.776;9.370;2023-04-19T07:12:32;101353.63;;;9.06;51.34
61618;BME280;47518;51.776;9.370;2023-04-19T07:15:00;101354.34;;;9.18;50.58
61618;BME280;47518;51.776;9.370;2023-04-19T07:17:25;101352.50;;;9.28;50.40
61618;BME280;47518;51.776;9.370;2023-04-19T07:20:00;101349.34;;;9.33;49.75
61618;BME280;47518;51.776;9.370;2023-04-19T07:22:28;101351.06;;;9.44;49.89
61618;BME280;47518;51.776;9.370;2023-04-19T07:24:53;101340.34;;;9.52;48.50
61618;BME280;47518;51.776;9.370;2023-04-19T07:27:18;101340.06;;;9.55;49.25
61618;BME280;47518;51.776;9.370;2023-04-19T07:29:47;101338.19;;;9.65;49.65
61618;BME280;47518;51.776;9.370;2023-04-19T07:32:16;101346.03;;;9.68;48.14
61618;BME280;47518;51.776;9.370;2023-04-19T07:34:45;101334.28;;;9.87;46.98
61618;BME280;47518;51.776;9.370;2023-04-19T07:37:11;101341.41;;;9.88;48.11
61618;BME280;47518;51.776;9.370;2023-04-19T07:39:38;101342.28;;;9.88;47.04
61618;BME280;47518;51.776;9.370;2023-04-19T07:42:03;101327.09;;;9.96;47.10
61618;BME280;47518;51.776;9.370;2023-04-19T07:44:29;101327.78;;;10.07;45.89
61618;BME280;47518;51.776;9.370;2023-04-19T07:46:55;101326.59;;;10.19;44.71
61618;BME280;47518;51.776;9.370;2023-04-19T07:49:23;101331.19;;;10.09;45.19
61618;BME280;47518;51.776;9.370;2023-04-19T07:51:49;101321.75;;;10.23;43.95
61618;BME280;47518;51.776;9.370;2023-04-19T07:54:14;101316.25;;;10.33;44.86
61618;BME280;47518;51.776;9.370;2023-04-19T07:56:41;101321.69;;;10.33;44.15
61618;BME280;47518;51.776;9.370;2023-04-19T07:59:07;101320.66;;;10.43;45.90
61618;BME280;47518;51.776;9.370;2023-04-19T08:01:32;101317.94;;;10.43;45.86
61618;BME280;47518;51.776;9.370;2023-04-19T08:03:58;101305.53;;;10.59;45.32
61618;BME280;47518;51.776;9.370;2023-04-19T08:06:24;101309.25;;;10.58;44.29
61618;BME280;47518;51.776;9.370;2023-04-19T08:08:54;101297.97;;;10.52;44.94
61618;BME280;47518;51.776;9.370;2023-04-19T08:11:19;101301.66;;;10.79;44.77
61618;BME280;47518;51.776;9.370;2023-04-19T08:13:51;101294.06;;;11.00;43.36
61618;BME280;47518;51.776;9.370;2023-04-19T08:16:23;101293.34;;;11.16;43.68
61618;BME280;47518;51.776;9.370;2023-04-19T08:18:48;101290.63;;;10.98;43.54
61618;BME280;47518;51.776;9.370;2023-04-19T08:21:17;101299.19;;;11.03;43.72
61618;BME280;47518;51.776;9.370;2023-04-19T08:23:48;101288.59;;;11.36;42.83
61618;BME280;47518;51.776;9.370;2023-04-19T08:26:25;101289.28;;;11.38;41.78
61618;BME280;47518;51.776;9.370;2023-04-19T08:29:02;101285.16;;;11.34;40.82
61618;BME280;47518;51.776;9.370;2023-04-19T08:31:36;101274.59;;;11.31;40.84
61618;BME280;47518;51.776;9.370;2023-04-19T08:34:07;101272.56;;;11.33;40.02
61618;BME280;47518;51.776;9.370;2023-04-19T08:36:33;101276.19;;;11.42;40.32
61618;BME280;47518;51.776;9.370;2023-04-19T08:38:58;101272.44;;;11.60;40.46
61618;BME280;47518;51.776;9.370;2023-04-19T08:41:25;101284.50;;;11.58;39.70
61618;BME280;47518;51.776;9.370;2023-04-19T08:43:53;101268.66;;;11.79;39.33
61618;BME280;47518;51.776;9.370;2023-04-19T08:46:20;101265.19;;;11.95;40.14
61618;BME280;47518;51.776;9.370;2023-04-19T08:48:48;101265.41;;;12.10;37.72
61618;BME280;47518;51.776;9.370;2023-04-19T08:51:16;101262.19;;;12.06;37.22
61618;BME280;47518;51.776;9.370;2023-04-19T08:53:42;101262.81;;;12.00;37.14
61618;BME280;47518;51.776;9.370;2023-04-19T08:56:08;101262.75;;;12.18;37.59
61618;BME280;47518;51.776;9.370;2023-04-19T08:58:35;101263.03;;;12.15;36.21
61618;BME280;47518;51.776;9.370;2023-04-19T09:01:05;101250.47;;;12.22;35.78
61618;BME280;47518;51.776;9.370;2023-04-19T09:03:31;101245.06;;;12.38;35.45
61618;BME280;47518;51.776;9.370;2023-04-19T09:06:02;101250.69;;;12.37;35.96
61618;BME280;47518;51.776;9.370;2023-04-19T09:08:29;101252.91;;;12.33;35.35
61618;BME280;47518;51.776;9.370;2023-04-19T09:10:58;101252.06;;;12.33;35.44
61618;BME280;47518;51.776;9.370;2023-04-19T09:13:25;101251.06;;;12.42;35.46
61618;BME280;47518;51.776;9.370;2023-04-19T09:15:52;101245.94;;;12.39;35.03
61618;BME280;47518;51.776;9.370;2023-04-19T09:18:18;101243.09;;;12.56;35.21
61618;BME280;47518;51.776;9.370;2023-04-19T09:20:47;101245.59;;;12.50;34.43
61618;BME280;47518;51.776;9.370;2023-04-19T09:23:15;101240.97;;;12.34;33.89
61618;BME280;47518;51.776;9.370;2023-04-19T09:25:51;101225.84;;;12.48;34.03
61618;BME280;47518;51.776;9.370;2023-04-19T09:28:23;101240.91;;;12.76;33.82
61618;BME280;47518;51.776;9.370;2023-04-19T09:30:48;101243.97;;;12.65;32.93
61618;BME280;47518;51.776;9.370;2023-04-19T09:33:31;101235.44;;;12.68;33.45
61618;BME280;47518;51.776;9.370;2023-04-19T09:36:05;101238.84;;;12.70;33.27
61618;BME280;47518;51.776;9.370;2023-04-19T09:38:50;101218.38;;;12.66;33.74
61618;BME280;47518;51.776;9.370;2023-04-19T09:41:25;101232.72;;;12.68;34.25
61618;BME280;47518;51.776;9.370;2023-04-19T09:43:54;101223.34;;;12.63;34.29
61618;BME280;47518;51.776;9.370;2023-04-19T09:46:36;101228.63;;;13.05;33.85
61618;BME280;47518;51.776;9.370;2023-04-19T09:49:24;101227.78;;;13.04;33.11
61618;BME280;47518;51.776;9.370;2023-04-19T09:51:54;101223.50;;;12.94;34.00
61618;BME280;47518;51.776;9.370;2023-04-19T09:54:23;101214.31;;;13.03;34.73
61618;BME280;47518;51.776;9.370;2023-04-19T09:56:51;101216.53;;;13.15;34.40
61618;BME280;47518;51.776;9.370;2023-04-19T09:59:17;101215.72;;;13.23;33.94
61618;BME280;47518;51.776;9.370;2023-04-19T10:01:56;101218.75;;;13.12;34.29
61618;BME280;47518;51.776;9.370;2023-04-19T10:04:41;101210.94;;;13.33;33.60
61618;BME280;47518;51.776;9.370;2023-04-19T10:07:07;101206.63;;;13.47;34.41
61618;BME280;47518;51.776;9.370;2023-04-19T10:09:33;101208.81;;;13.60;33.31
61618;BME280;47518;51.776;9.370;2023-04-19T10:12:06;101202.00;;;13.56;33.49
61618;BME280;47518;51.776;9.370;2023-04-19T10:14:38;101201.66;;;13.51;33.49
61618;BME280;47518;51.776;9.370;2023-04-19T10:17:03;101196.00;;;13.68;33.55
61618;BME280;47518;51.776;9.370;2023-04-19T10:19:30;101200.81;;;13.58;34.21
61618;BME280;47518;51.776;9.370;2023-04-19T10:21:58;101200.22;;;13.79;34.99
61618;BME280;47518;51.776;9.370;2023-04-19T10:24:24;101190.81;;;13.90;34.03
61618;BME280;47518;51.776;9.370;2023-04-19T10:27:11;101187.13;;;14.06;33.60
61618;BME280;47518;51.776;9.370;2023-04-19T10:29:58;101182.50;;;14.45;31.54
61618;BME280;47518;51.776;9.370;2023-04-19T10:32:28;101179.72;;;14.76;31.00
61618;BME280;47518;51.776;9.370;2023-04-19T10:34:54;101165.47;;;14.58;30.54
61618;BME280;47518;51.776;9.370;2023-04-19T10:37:25;101176.91;;;14.84;31.55
61618;BME280;47518;51.776;9.370;2023-04-19T10:39:51;101175.75;;;15.84;31.24
61618;BME280;47518;51.776;9.370;2023-04-19T10:42:17;101174.22;;;15.96;30.22
61618;BME280;47518;51.776;9.370;2023-04-19T10:45:30;101166.22;;;16.30;29.48
61618;BME280;47518;51.776;9.370;2023-04-19T10:47:50;101173.84;;;16.50;28.79
61618;BME280;47518;51.776;9.370;2023-04-19T10:50:16;101166.69;;;16.70;28.43
61618;BME280;47518;51.776;9.370;2023-04-19T10:52:42;101158.06;;;17.23;27.88
61618;BME280;47518;51.776;9.370;2023-04-19T10:55:14;101157.31;;;18.04;26.73
61618;BME280;47518;51.776;9.370;2023-04-19T10:58:03;101142.09;;;18.96;26.04
61618;BME280;47518;51.776;9.370;2023-04-19T11:00:48;101134.38;;;20.29;23.35
61618;BME280;47518;51.776;9.370;2023-04-19T11:03:49;101142.06;;;20.27;23.19
61618;BME280;47518;51.776;9.370;2023-04-19T11:06:18;101126.69;;;22.65;20.72
61618;BME280;47518;51.776;9.370;2023-04-19T11:08:45;101124.03;;;23.00;19.29
61618;BME280;47518;51.776;9.370;2023-04-19T11:11:12;101113.97;;;22.76;19.43
61618;BME280;47518;51.776;9.370;2023-04-19T11:13:41;101118.50;;;23.47;18.46
61618;BME280;47518;51.776;9.370;2023-04-19T11:16:07;101105.84;;;23.75;17.76
61618;BME280;47518;51.776;9.370;2023-04-19T11:18:32;101110.38;;;21.97;19.10
61618;BME280;47518;51.776;9.370;2023-04-19T11:20:58;101103.38;;;21.15;21.35
61618;BME280;47518;51.776;9.370;2023-04-19T11:23:25;101101.00;;;21.80;19.81
61618;BME280;47518;51.776;9.370;2023-04-19T11:25:50;101088.34;;;21.54;19.68
61618;BME280;47518;51.776;9.370;2023-04-19T11:28:19;101083.22;;;21.88;19.27
61618;BME280;47518;51.776;9.370;2023-04-19T11:30:46;101096.69;;;21.47;18.62
61618;BME280;47518;51.776;9.370;2023-04-19T11:33:12;101085.47;;;21.61;17.86
61618;BME280;47518;51.776;9.370;2023-04-19T11:35:53;101079.28;;;21.65;17.80
61618;BME280;47518;51.776;9.370;2023-04-19T11:38:18;101074.25;;;21.92;18.24
61618;BME280;47518;51.776;9.370;2023-04-19T11:40:43;101073.41;;;21.73;18.20
61618;BME280;47518;51.776;9.370;2023-04-19T11:43:09;101071.00;;;21.95;18.24
61618;BME280;47518;51.776;9.370;2023-04-19T11:45:36;101073.09;;;21.02;18.76
61618;BME280;47518;51.776;9.370;2023-04-19T11:48:04;101072.25;;;21.26;19.67
61618;BME280;47518;51.776;9.370;2023-04-19T11:53:17;101059.59;;;22.63;18.41
61618;BME280;47518;51.776;9.370;2023-04-19T11:55:46;101063.56;;;22.79;17.98
61618;BME280;47518;51.776;9.370;2023-04-19T11:58:35;101063.59;;;24.41;16.13
61618;BME280;47518;51.776;9.370;2023-04-19T12:01:09;101069.44;;;24.57;16.25
61618;BME280;47518;51.776;9.370;2023-04-19T12:03:52;101051.94;;;24.90;15.84
61618;BME280;47518;51.776;9.370;2023-04-19T12:08:58;101050.25;;;22.34;18.05
61618;BME280;47518;51.776;9.370;2023-04-19T12:11:44;101041.75;;;22.48;17.97
61618;BME280;47518;51.776;9.370;2023-04-19T12:14:11;101036.78;;;22.50;18.11
61618;BME280;47518;51.776;9.370;2023-04-19T12:16:40;101026.56;;;21.17;19.13
61618;BME280;47518;51.776;9.370;2023-04-19T12:19:14;101027.31;;;20.62;20.05
61618;BME280;47518;51.776;9.370;2023-04-19T12:21:40;101022.38;;;19.70;21.82
61618;BME280;47518;51.776;9.370;2023-04-19T12:24:06;101016.28;;;19.41;20.31
61618;BME280;47518;51.776;9.370;2023-04-19T12:26:32;101012.38;;;19.11;21.44
61618;BME280;47518;51.776;9.370;2023-04-19T12:28:59;101003.72;;;18.34;21.58
61618;BME280;47518;51.776;9.370;2023-04-19T12:31:24;101000.56;;;18.77;20.50
61618;BME280;47518;51.776;9.370;2023-04-19T12:33:50;100993.34;;;18.89;20.39
61618;BME280;47518;51.776;9.370;2023-04-19T12:36:22;100979.78;;;18.35;20.11
61618;BME280;47518;51.776;9.370;2023-04-19T12:38:47;100995.63;;;18.13;21.40
61618;BME280;47518;51.776;9.370;2023-04-19T12:41:12;100994.78;;;17.99;21.47
61618;BME280;47518;51.776;9.370;2023-04-19T12:43:41;100988.63;;;17.97;21.40
61618;BME280;47518;51.776;9.370;2023-04-19T12:46:06;100972.81;;;17.58;21.05
61618;BME280;47518;51.776;9.370;2023-04-19T12:48:31;100988.44;;;17.44;21.18
61618;BME280;47518;51.776;9.370;2023-04-19T12:50:57;100982.50;;;17.47;22.38
61618;BME280;47518;51.776;9.370;2023-04-19T12:53:22;100969.56;;;17.35;22.00
61618;BME280;47518;51.776;9.370;2023-04-19T12:55:49;100962.59;;;17.26;22.43
61618;BME280;47518;51.776;9.370;2023-04-19T12:58:15;100966.66;;;17.02;22.12
61618;BME280;47518;51.776;9.370;2023-04-19T13:00:42;100971.94;;;16.97;23.63
61618;BME280;47518;51.776;9.370;2023-04-19T13:03:07;100967.97;;;17.06;21.93
61618;BME280;47518;51.776;9.370;2023-04-19T13:05:50;100970.00;;;16.90;22.18
61618;BME280;47518;51.776;9.370;2023-04-19T13:08:19;100969.59;;;16.94;21.32
61618;BME280;47518;51.776;9.370;2023-04-19T13:10:46;100967.41;;;16.82;22.17
61618;BME280;47518;51.776;9.370;2023-04-19T13:13:11;100959.44;;;16.94;22.80
61618;BME280;47518;51.776;9.370;2023-04-19T13:15:39;100962.88;;;17.03;22.22
61618;BME280;47518;51.776;9.370;2023-04-19T13:18:06;100964.94;;;16.94;22.34
61618;BME280;47518;51.776;9.370;2023-04-19T13:20:31;100952.75;;;16.69;22.41
61618;BME280;47518;51.776;9.370;2023-04-19T13:22:56;100961.16;;;16.67;22.04
61618;BME280;47518;51.776;9.370;2023-04-19T13:25:22;100954.44;;;16.70;22.15
61618;BME280;47518;51.776;9.370;2023-04-19T13:27:47;100963.25;;;16.37;22.42